»·PEaware :: N716TH KSNA-KPSP

N716TH :: KSNA-KPSP

FLIGHT INFORMATION

Flight Status: Arrived
Operator: Privately registered:
United States
More flights under this callsign
Pilot: Danny R. (17997)
Aircraft: CESSNA 172 SKYHAWK
(C172)
More flights by this aircraft type
Origin: KSNA John Wayne-Orange Co
United States
Destination: KPSP Palm Springs Intl
United States
More flights between these airports :: More routes between these airports
Route: +
File this flight plan on PilotEdge
Remarks:
Altitude:
(Current/Filed)
3,000ft
Speed:
(Current/Filed)
0kts
Departed: 09-Feb-18 11:32 AM
Arrived: 09-Feb-18 12:22 PM
Distance/Time
Traveled:
69nm/0:50
Distance/Time
To Go:
Arrived

Flight Plot

Page will automatically refresh every two minutes.


Map Options




Map Legend


Flown Route
Filed Route
Departure Airport
Arrival Airport
Navaid (VOR, NDB)
Fix

Horizontal Profiles

Position Reports

Time Latitude Longitude Heading Altitude Ground
Speed
09-Feb-18 11:27 33.671715 -117.867786 27 60ft 0kts
09-Feb-18 11:28 33.671715 -117.867786 27 60ft 0kts
09-Feb-18 11:29 33.671715 -117.867786 27 60ft 0kts
09-Feb-18 11:30 33.671715 -117.867786 27 60ft 0kts
09-Feb-18 11:31 33.671807 -117.867740 9 60ft 4kts
09-Feb-18 11:32 33.672646 -117.867779 30 60ft 7kts
09-Feb-18 11:33 33.674854 -117.866605 25 60ft 15kts
09-Feb-18 11:34 33.678291 -117.864439 26 60ft 14kts
09-Feb-18 11:35 33.680000 -117.863651 301 60ft 0kts
09-Feb-18 11:36 33.680000 -117.863650 301 60ft 0kts
09-Feb-18 11:37 33.680000 -117.863650 301 60ft 0kts
09-Feb-18 11:38 33.672357 -117.869272 208 367ft 63kts
09-Feb-18 11:39 33.657591 -117.870346 98 1237ft 79kts
09-Feb-18 11:40 33.657041 -117.845847 86 2041ft 79kts
09-Feb-18 11:41 33.658444 -117.819637 87 2777ft 88kts
09-Feb-18 11:42 33.657196 -117.790967 89 3265ft 84kts
09-Feb-18 11:43 33.665181 -117.768070 30 3311ft 81kts
09-Feb-18 11:44 33.686622 -117.759508 15 3183ft 88kts
09-Feb-18 11:45 33.711989 -117.750794 15 3115ft 100kts
09-Feb-18 11:47 33.739774 -117.741221 15 3169ft 105kts
09-Feb-18 11:48 33.769717 -117.730881 15 2973ft 117kts
09-Feb-18 11:49 33.787613 -117.702399 53 2907ft 105kts
09-Feb-18 11:50 33.805148 -117.676340 50 2947ft 95kts
09-Feb-18 11:51 33.821914 -117.651426 50 3009ft 106kts
09-Feb-18 11:52 33.841236 -117.622433 50 2949ft 112kts
09-Feb-18 11:53 33.860984 -117.592823 49 2948ft 113kts
09-Feb-18 11:54 33.880562 -117.563452 49 2947ft 112kts
09-Feb-18 11:55 33.899919 -117.534378 49 2946ft 111kts
09-Feb-18 11:56 33.919095 -117.505429 49 2946ft 111kts
09-Feb-18 11:57 33.938436 -117.476343 49 2944ft 111kts
09-Feb-18 11:58 33.957406 -117.447054 60 2945ft 112kts
09-Feb-18 11:59 33.969071 -117.412072 65 2944ft 112kts
09-Feb-18 12:00 33.980985 -117.377471 66 2944ft 112kts
09-Feb-18 12:01 33.992866 -117.343103 68 2977ft 108kts
09-Feb-18 12:02 34.004475 -117.309479 67 2987ft 110kts
09-Feb-18 12:03 34.016025 -117.276258 67 2979ft 108kts
09-Feb-18 12:04 34.026895 -117.244765 67 2978ft 106kts
09-Feb-18 12:05 34.037813 -117.211644 77 2975ft 106kts
09-Feb-18 12:06 34.031844 -117.178631 103 3099ft 94kts
09-Feb-18 12:07 34.025161 -117.148450 102 3176ft 95kts
09-Feb-18 12:08 34.018487 -117.117089 102 3172ft 97kts
09-Feb-18 12:09 34.011715 -117.085199 102 3165ft 98kts
09-Feb-18 12:10 34.004883 -117.053046 102 3167ft 99kts
09-Feb-18 12:11 33.995188 -117.022990 122 3316ft 105kts
09-Feb-18 12:12 33.979256 -116.993578 120 3621ft 108kts
09-Feb-18 12:13 33.964176 -116.961688 113 3769ft 111kts
09-Feb-18 12:14 33.949427 -116.928058 112 3792ft 112kts
09-Feb-18 12:15 33.937621 -116.893249 106 3705ft 112kts
09-Feb-18 12:16 33.928050 -116.858503 104 3648ft 107kts
09-Feb-18 12:17 33.919436 -116.824670 105 3596ft 106kts
09-Feb-18 12:18 33.913789 -116.791099 95 3656ft 103kts
09-Feb-18 12:19 33.911475 -116.755348 97 3665ft 109kts
09-Feb-18 12:20 33.908697 -116.717624 89 3198ft 111kts
09-Feb-18 12:21 33.910936 -116.680843 87 2723ft 111kts
09-Feb-18 12:22 33.904993 -116.646951 119 2479ft 99kts
09-Feb-18 12:23 33.889490 -116.618474 123 2259ft 100kts
09-Feb-18 12:24 33.881331 -116.586418 98 2016ft 103kts
09-Feb-18 12:25 33.875725 -116.553208 110 1644ft 83kts
09-Feb-18 12:26 33.863738 -116.535895 142 1370ft 70kts
09-Feb-18 12:27 33.848239 -116.521666 143 957ft 62kts
09-Feb-18 12:28 33.835100 -116.509633 142 491ft 52kts
09-Feb-18 12:29 33.831732 -116.506009 53 481ft 0kts
09-Feb-18 12:30 33.831732 -116.506009 53 481ft 0kts
09-Feb-18 12:31 33.830658 -116.504683 141 481ft 15kts
09-Feb-18 12:32 33.826874 -116.501334 143 481ft 11kts
09-Feb-18 12:33 33.824312 -116.498803 145 481ft 6kts
09-Feb-18 12:34 33.824321 -116.498347 52 481ft 0kts
09-Feb-18 12:35 33.824321 -116.498347 52 481ft 0kts
09-Feb-18 12:36 33.824321 -116.498348 52 481ft 0kts
09-Feb-18 12:37 33.824321 -116.498348 52 481ft 0kts
09-Feb-18 12:38 33.824321 -116.498348 52 481ft 0kts
09-Feb-18 12:39 33.824321 -116.498348 52 481ft 0kts
09-Feb-18 12:40 33.824321 -116.498348 52 481ft 0kts
09-Feb-18 12:41 33.824321 -116.498348 52 481ft 0kts
09-Feb-18 12:42 33.824321 -116.498348 52 481ft 0kts
09-Feb-18 12:43 33.824321 -116.498348 52 481ft 0kts

Navigation Log

Ident Type
1. KSNA Airport
2. KPSP Airport